Time;durP1;ratioP1;P1;durP2;ratioP2;P2;SDS_P1;SDS_P2;PMS_P1;PMS_P2;Temp;Humidity;BMP_temperature;BMP_pressure;BME280_temperature;BME280_humidity;BME280_pressure;Samples;Min_cycle;Max_cycle;Signal;HPM_P1;HPM_P2
2021/06/30 00:00:45;;;;;;;9.02;8.07;;;;;;;38.71;23.97;94399.19;5133311;27;19916;-58
2021/06/30 00:03:26;;;;;;;9.90;8.13;;;;;;;39.10;23.75;94400.69;5092387;27;20377;-63
2021/06/30 00:06:08;;;;;;;9.85;8.40;;;;;;;38.86;24.02;94400.72;5091618;28;20370;-63
2021/06/30 00:08:49;;;;;;;9.43;8.40;;;;;;;38.67;23.92;94393.91;5112557;27;20121;-59
2021/06/30 00:11:30;;;;;;;10.70;9.00;;;;;;;38.75;23.74;94402.50;5072124;28;20394;-64
2021/06/30 00:14:13;;;;;;;9.07;8.23;;;;;;;38.68;24.08;94397.41;5071300;28;20386;-58
2021/06/30 00:16:54;;;;;;;9.55;8.20;;;;;;;38.67;24.29;94404.06;5091379;27;20743;-63
2021/06/30 00:19:36;;;;;;;8.68;7.80;;;;;;;38.61;24.25;94401.22;5091128;27;20377;-61
2021/06/30 00:22:17;;;;;;;9.10;8.20;;;;;;;38.58;24.60;94399.41;5112174;27;20392;-58
2021/06/30 00:24:59;;;;;;;10.13;8.25;;;;;;;38.63;23.78;94411.69;5071341;28;20397;-65
2021/06/30 00:27:43;;;;;;;9.02;7.97;;;;;;;38.44;24.29;94398.16;5091264;27;20382;-65
2021/06/30 00:30:24;;;;;;;8.70;7.90;;;;;;;38.55;24.10;94409.31;5071531;28;20389;-63
2021/06/30 00:33:05;;;;;;;8.45;7.60;;;;;;;38.55;23.79;94408.56;5071802;28;20744;-58
2021/06/30 00:35:46;;;;;;;9.60;8.07;;;;;;;38.20;24.76;94405.56;5071165;28;20390;-63
2021/06/30 00:38:27;;;;;;;8.93;8.00;;;;;;;38.71;23.87;94413.59;5091696;27;20389;-59
2021/06/30 00:41:09;;;;;;;9.02;8.10;;;;;;;38.46;24.04;94405.88;5071588;28;20386;-66
2021/06/30 00:43:51;;;;;;;10.23;8.02;;;;;;;38.23;24.75;94415.56;5132640;27;20127;-66
2021/06/30 00:46:33;;;;;;;12.52;8.50;;;;;;;38.44;24.14;94417.25;5111792;27;20387;-65
2021/06/30 00:49:15;;;;;;;8.35;7.65;;;;;;;38.72;23.73;94428.00;5071688;28;20617;-63
2021/06/30 00:51:56;;;;;;;8.52;7.45;;;;;;;38.20;24.66;94421.94;5112468;27;20683;-63
2021/06/30 00:54:38;;;;;;;9.55;7.93;;;;;;;38.56;23.96;94420.97;5112482;27;20387;-62
2021/06/30 00:57:19;;;;;;;8.68;7.70;;;;;;;38.02;24.87;94422.03;5071764;28;20398;-58
2021/06/30 01:00:00;;;;;;;8.32;7.63;;;;;;;38.31;24.41;94422.22;5092210;27;20389;-63
2021/06/30 01:02:42;;;;;;;9.15;8.35;;;;;;;38.34;24.55;94418.53;5072172;28;20413;-65
2021/06/30 01:05:23;;;;;;;9.95;7.88;;;;;;;38.05;24.81;94427.31;5112525;27;20399;-66
2021/06/30 01:08:05;;;;;;;8.43;7.63;;;;;;;38.29;24.71;94419.19;5115417;27;20572;-65
2021/06/30 01:10:46;;;;;;;9.25;8.25;;;;;;;38.36;24.21;94418.84;5092354;28;20396;-59
2021/06/30 01:13:31;;;;;;;8.52;7.78;;;;;;;37.70;25.18;94413.34;5092315;28;20039;-65
2021/06/30 01:16:12;;;;;;;9.40;8.13;;;;;;;38.15;24.72;94414.38;5112150;27;20388;-62
2021/06/30 01:18:53;;;;;;;9.23;8.10;;;;;;;38.22;24.48;94414.06;5112096;27;20752;-65
2021/06/30 01:21:35;;;;;;;9.80;7.90;;;;;;;38.06;24.70;94417.16;5072106;28;20379;-65
2021/06/30 01:24:17;;;;;;;8.45;7.65;;;;;;;37.90;24.87;94402.69;5112582;27;20388;-62
2021/06/30 01:26:58;;;;;;;8.63;7.82;;;;;;;38.08;24.61;94403.81;5111435;27;20396;-66
2021/06/30 01:29:39;;;;;;;8.95;8.05;;;;;;;38.07;24.54;94413.22;5092398;27;20396;-65
2021/06/30 01:32:21;;;;;;;8.60;7.68;;;;;;;37.91;24.48;94406.91;5111853;27;20675;-66
2021/06/30 01:35:02;;;;;;;9.00;8.13;;;;;;;37.96;24.55;94409.00;5112396;27;20376;-66
2021/06/30 01:37:47;;;;;;;9.43;8.43;;;;;;;37.97;24.65;94418.69;5072121;28;20398;-65
2021/06/30 01:40:29;;;;;;;8.75;7.95;;;;;;;38.00;24.77;94416.28;5112749;27;20884;-64
2021/06/30 01:43:10;;;;;;;8.52;7.72;;;;;;;38.02;24.82;94420.06;5092063;27;20886;-63
2021/06/30 01:45:55;;;;;;;8.75;7.85;;;;;;;37.85;24.41;94408.78;5100800;27;20125;-59
2021/06/30 01:48:36;;;;;;;8.15;7.43;;;;;;;38.12;24.71;94415.31;5112087;27;20376;-62
2021/06/30 01:51:17;;;;;;;8.35;7.60;;;;;;;37.78;25.19;94419.28;5112703;27;20376;-63
2021/06/30 01:54:00;;;;;;;8.75;7.82;;;;;;;38.06;24.53;94417.16;5071905;27;20852;-61
2021/06/30 01:56:42;;;;;;;11.43;7.43;;;;;;;37.56;24.58;94414.00;5071788;28;20390;-60
2021/06/30 01:59:23;;;;;;;8.73;7.78;;;;;;;37.78;24.57;94419.28;5112663;27;20892;-57
2021/06/30 02:02:05;;;;;;;10.05;8.15;;;;;;;37.87;24.68;94414.53;5091918;28;20195;-58
2021/06/30 02:04:59;;;;;;;8.77;7.88;;;;;;;37.37;25.17;94412.53;5092095;27;20381;-58
2021/06/30 02:07:47;;;;;;;8.73;7.93;;;;;;;37.67;24.70;94419.72;5072106;28;20388;-65
2021/06/30 02:10:29;;;;;;;9.15;8.25;;;;;;;37.50;25.07;94415.84;5112697;27;20717;-65
2021/06/30 02:13:12;;;;;;;9.38;7.82;;;;;;;37.56;24.75;94416.75;5118213;27;20174;-66
2021/06/30 02:15:52;;;;;;;9.00;8.10;;;;;;;37.36;25.07;94419.97;5071621;28;20382;-65
2021/06/30 02:18:34;;;;;;;10.80;8.40;;;;;;;37.60;25.17;94420.06;5126612;27;20494;-59
2021/06/30 02:21:15;;;;;;;11.07;7.85;;;;;;;37.70;24.56;94424.25;5099048;27;20179;-59
2021/06/30 02:23:56;;;;;;;7.95;7.25;;;;;;;37.61;24.54;94411.41;5092268;27;20389;-57
2021/06/30 02:26:38;;;;;;;9.48;7.63;;;;;;;37.56;24.78;94419.47;5071636;28;20387;-64
2021/06/30 02:29:19;;;;;;;9.02;8.18;;;;;;;37.66;24.61;94426.38;5133208;27;19922;-64
2021/06/30 02:32:00;;;;;;;9.60;7.93;;;;;;;37.39;25.44;94421.03;5063332;28;20420;-64
2021/06/30 02:34:42;;;;;;;9.05;7.90;;;;;;;37.69;24.68;94430.16;5071800;28;20389;-64
2021/06/30 02:37:23;;;;;;;9.50;8.40;;;;;;;37.59;24.92;94440.34;5092196;27;20377;-61
2021/06/30 02:40:10;;;;;;;9.38;8.45;;;;;;;37.59;24.88;94438.38;5071574;28;20914;-62
2021/06/30 02:42:52;;;;;;;9.00;8.15;;;;;;;37.62;25.06;94433.97;5072166;28;20421;-66
2021/06/30 02:45:32;;;;;;;11.23;8.20;;;;;;;37.13;25.76;94436.94;5071880;28;20402;-61
2021/06/30 02:48:14;;;;;;;11.68;8.38;;;;;;;37.72;24.65;94432.00;5071384;28;20394;-65
2021/06/30 02:50:56;;;;;;;9.18;8.30;;;;;;;37.53;24.74;94436.75;5123206;27;19926;-65
2021/06/30 02:53:37;;;;;;;9.75;8.65;;;;;;;37.62;25.00;94439.44;5072188;28;20398;-65
2021/06/30 02:56:21;;;;;;;10.02;9.02;;;;;;;37.02;26.13;94440.13;5071874;28;20382;-62
2021/06/30 02:59:03;;;;;;;11.10;8.85;;;;;;;37.35;25.26;94445.72;5072167;28;20385;-65
2021/06/30 03:01:44;;;;;;;10.50;8.63;;;;;;;37.34;25.08;94438.75;5071976;28;20390;-62
2021/06/30 03:04:26;;;;;;;11.30;9.23;;;;;;;37.17;25.51;94438.28;5072147;28;20397;-65
2021/06/30 03:07:07;;;;;;;11.18;9.18;;;;;;;37.49;24.91;94447.06;5071600;28;20387;-61
2021/06/30 03:09:48;;;;;;;11.25;8.88;;;;;;;37.51;25.04;94450.09;5071935;28;20868;-65
2021/06/30 03:12:29;;;;;;;10.70;8.15;;;;;;;37.34;25.56;94455.88;5092338;27;20385;-65
2021/06/30 03:15:14;;;;;;;13.20;8.98;;;;;;;37.18;25.31;94461.59;5071904;28;20408;-66
2021/06/30 03:17:55;;;;;;;12.27;8.70;;;;;;;37.53;24.95;94458.56;5071699;28;20401;-60
2021/06/30 03:20:37;;;;;;;11.75;8.90;;;;;;;37.43;25.15;94448.88;5071961;28;20751;-61
2021/06/30 03:23:18;;;;;;;10.93;9.80;;;;;;;37.75;24.91;94450.94;5072076;28;20390;-63
2021/06/30 03:26:00;;;;;;;11.55;9.43;;;;;;;37.53;25.17;94447.66;5071886;28;20391;-61
2021/06/30 03:28:41;;;;;;;13.38;10.30;;;;;;;37.60;24.71;94450.06;5072192;28;20401;-64
2021/06/30 03:31:23;;;;;;;12.00;9.68;;;;;;;37.64;25.19;94442.47;5095572;27;20391;-61
2021/06/30 03:34:04;;;;;;;13.52;9.55;;;;;;;37.81;24.73;94440.16;5072180;28;20393;-61
2021/06/30 03:36:46;;;;;;;12.77;9.00;;;;;;;37.41;25.14;94437.66;5071783;28;20870;-62
2021/06/30 03:39:27;;;;;;;10.68;9.60;;;;;;;37.77;24.77;94440.34;5072091;28;20397;-63
2021/06/30 03:42:09;;;;;;;11.77;9.55;;;;;;;37.76;24.55;94441.56;5093942;27;20139;-63
2021/06/30 03:44:50;;;;;;;11.18;9.38;;;;;;;37.76;24.84;94444.28;5072030;28;20400;-66
2021/06/30 03:47:31;;;;;;;10.27;8.57;;;;;;;38.15;24.39;94447.13;5071997;28;20389;-64
2021/06/30 03:50:12;;;;;;;9.20;8.30;;;;;;;38.02;24.03;94461.00;5070280;28;20982;-60
2021/06/30 03:52:54;;;;;;;11.60;8.02;;;;;;;38.17;24.23;94461.09;5072059;28;20899;-62
2021/06/30 03:55:35;;;;;;;9.57;8.57;;;;;;;38.20;24.60;94463.66;5071914;28;20382;-65
2021/06/30 03:58:17;;;;;;;9.98;8.52;;;;;;;38.02;24.87;94463.72;5072000;28;20383;-66
2021/06/30 04:00:59;;;;;;;8.88;7.95;;;;;;;38.10;24.70;94467.63;5071410;28;20564;-58
2021/06/30 04:03:43;;;;;;;12.35;8.90;;;;;;;38.55;24.29;94457.69;5071839;28;20913;-64
2021/06/30 04:06:24;;;;;;;11.75;8.77;;;;;;;38.08;24.69;94463.84;5071903;28;20392;-66
2021/06/30 04:09:06;;;;;;;10.57;8.48;;;;;;;38.13;24.97;94455.78;5090568;28;20129;-66
2021/06/30 04:11:47;;;;;;;10.40;8.43;;;;;;;38.52;24.04;94445.72;5072052;28;20394;-67
2021/06/30 04:14:29;;;;;;;10.13;8.30;;;;;;;38.62;23.94;94451.13;5071385;28;20387;-51
2021/06/30 04:17:10;;;;;;;10.32;8.80;;;;;;;39.02;23.69;94445.97;5086335;28;20391;-70
2021/06/30 04:19:52;;;;;;;10.40;8.48;;;;;;;38.75;24.10;94452.41;5094833;27;20132;-70
2021/06/30 04:22:33;;;;;;;12.52;9.05;;;;;;;39.32;23.71;94443.31;5126049;27;20203;-52
2021/06/30 04:25:14;;;;;;;13.23;9.45;;;;;;;38.83;23.95;94455.56;5058899;28;20408;-68
2021/06/30 04:27:56;;;;;;;10.77;8.80;;;;;;;38.92;24.37;94458.22;5071631;28;20387;-54
2021/06/30 04:30:36;;;;;;;10.38;9.30;;;;;;;38.85;25.04;94458.56;5072108;28;20421;-70
2021/06/30 04:33:18;;;;;;;9.88;8.90;;;;;;;38.76;24.73;94461.34;5132861;27;20378;-60
2021/06/30 04:35:59;;;;;;;9.93;8.88;;;;;;;38.53;25.01;94457.41;5071710;28;20393;-55
2021/06/30 04:38:41;;;;;;;9.13;8.20;;;;;;;38.65;24.56;94458.41;5071925;28;20387;-63
2021/06/30 04:41:22;;;;;;;9.35;8.40;;;;;;;38.62;24.57;94462.84;5071804;28;20880;-54
2021/06/30 04:44:04;;;;;;;9.13;8.10;;;;;;;38.14;25.94;94470.19;5091960;28;20875;-42
2021/06/30 04:46:45;;;;;;;13.07;8.25;;;;;;;39.57;23.41;94467.41;5101570;27;20392;-55
2021/06/30 04:49:26;;;;;;;9.55;7.88;;;;;;;40.13;22.69;94460.09;5070245;28;20390;-54
2021/06/30 04:52:08;;;;;;;8.88;7.85;;;;;;;39.63;23.30;94460.03;5061788;28;20483;-56
2021/06/30 04:54:49;;;;;;;8.43;7.30;;;;;;;39.62;23.07;94455.78;5072125;28;20741;-53
2021/06/30 04:57:31;;;;;;;8.90;8.00;;;;;;;40.04;22.56;94454.69;5072016;28;20394;-56
2021/06/30 05:00:12;;;;;;;8.65;7.35;;;;;;;40.62;22.24;94461.25;5072191;28;20402;-55
2021/06/30 05:02:53;;;;;;;7.97;6.65;;;;;;;39.84;23.15;94458.13;5071726;28;20387;-54
2021/06/30 05:05:35;;;;;;;7.45;6.75;;;;;;;39.94;23.02;94450.56;5072187;28;20392;-56
2021/06/30 05:08:16;;;;;;;7.47;6.75;;;;;;;40.75;22.01;94447.22;5072031;28;20414;-55
2021/06/30 05:10:58;;;;;;;7.60;7.00;;;;;;;40.31;22.23;94451.59;5072296;28;20398;-54
2021/06/30 05:13:40;;;;;;;9.32;6.50;;;;;;;40.41;22.44;94462.47;5071777;28;20708;-57
2021/06/30 05:16:22;;;;;;;7.70;6.93;;;;;;;40.51;22.11;94466.59;5070977;28;20402;-54
2021/06/30 05:19:04;;;;;;;7.85;7.05;;;;;;;40.22;22.24;94465.44;5071651;28;20393;-54
2021/06/30 05:21:45;;;;;;;8.10;6.93;;;;;;;40.48;22.18;94464.81;5072087;28;20709;-54
2021/06/30 05:24:27;;;;;;;8.15;7.35;;;;;;;40.96;21.46;94465.19;5069998;28;20413;-59
2021/06/30 05:27:08;;;;;;;8.65;7.85;;;;;;;40.72;21.60;94468.09;5071801;28;20396;-54
2021/06/30 05:29:50;;;;;;;9.00;8.20;;;;;;;40.51;22.26;94474.81;5072100;28;20393;-56
2021/06/30 05:32:31;;;;;;;9.55;7.18;;;;;;;40.74;22.65;94476.59;5071944;28;20386;-55
2021/06/30 05:35:13;;;;;;;8.50;7.70;;;;;;;41.13;21.62;94471.59;5072055;28;20383;-53
2021/06/30 05:37:53;;;;;;;9.18;8.07;;;;;;;41.05;21.62;94472.47;5071679;28;20386;-54
2021/06/30 05:40:35;;;;;;;9.85;7.85;;;;;;;41.05;21.95;94475.22;5080444;28;20985;-53
2021/06/30 05:43:17;;;;;;;8.98;7.78;;;;;;;40.70;22.39;94470.56;5123142;27;19922;-54
2021/06/30 05:45:58;;;;;;;10.30;8.07;;;;;;;41.07;21.72;94480.97;5129122;27;20133;-55
2021/06/30 05:48:39;;;;;;;12.13;8.68;;;;;;;40.94;21.78;94479.34;5071541;28;20397;-54
2021/06/30 05:51:21;;;;;;;9.40;8.30;;;;;;;40.93;22.43;94477.09;5072182;28;20394;-55
2021/06/30 05:54:02;;;;;;;10.93;8.50;;;;;;;41.62;21.72;94467.09;5071852;28;20379;-55
2021/06/30 05:56:44;;;;;;;8.93;7.95;;;;;;;41.25;21.62;94469.75;5071730;28;20697;-57
2021/06/30 05:59:25;;;;;;;9.25;8.25;;;;;;;41.08;21.50;94468.78;5072163;28;20398;-54
2021/06/30 06:02:06;;;;;;;9.45;8.30;;;;;;;41.25;21.66;94470.50;5092410;27;20401;-54
2021/06/30 06:04:48;;;;;;;9.25;8.35;;;;;;;40.90;22.27;94476.06;5072150;28;20383;-54
2021/06/30 06:07:29;;;;;;;9.75;8.40;;;;;;;41.37;21.38;94476.84;5064571;28;20892;-56
2021/06/30 06:10:11;;;;;;;12.88;8.73;;;;;;;41.15;22.10;94471.13;5071966;28;20682;-54
2021/06/30 06:12:52;;;;;;;9.20;8.27;;;;;;;40.90;21.89;94469.84;5092093;27;20400;-54
2021/06/30 06:15:34;;;;;;;12.30;8.70;;;;;;;41.14;21.52;94472.34;5072239;28;20394;-55
2021/06/30 06:18:15;;;;;;;9.60;8.60;;;;;;;41.26;21.49;94474.75;5091767;28;20122;-62
2021/06/30 06:20:56;;;;;;;14.35;8.80;;;;;;;41.02;21.74;94473.44;5092479;27;20406;-56
2021/06/30 06:23:37;;;;;;;9.57;8.60;;;;;;;41.42;21.88;94473.41;5071850;28;20389;-53
2021/06/30 06:26:20;;;;;;;10.13;9.23;;;;;;;41.44;21.62;94465.44;5071766;28;20398;-58
2021/06/30 06:29:03;;;;;;;14.27;10.07;;;;;;;41.50;21.92;94460.75;5057743;28;20385;-55
2021/06/30 06:31:48;;;;;;;10.55;9.30;;;;;;;41.21;21.96;94469.94;5072209;28;20395;-54
2021/06/30 06:34:29;;;;;;;9.43;8.40;;;;;;;40.94;22.05;94462.91;5054057;28;20128;-55
2021/06/30 06:37:14;;;;;;;10.05;8.50;;;;;;;41.42;21.28;94454.22;5071713;28;20382;-56
2021/06/30 06:39:56;;;;;;;10.05;8.45;;;;;;;41.54;21.51;94457.78;5072102;28;20391;-54
2021/06/30 06:42:38;;;;;;;9.27;8.23;;;;;;;41.82;21.67;94455.31;5071995;28;20401;-53
2021/06/30 06:45:18;;;;;;;11.20;8.40;;;;;;;41.76;21.44;94468.25;5072151;28;20401;-53
2021/06/30 06:48:00;;;;;;;13.05;8.32;;;;;;;41.71;21.90;94466.22;5071231;28;20392;-55
2021/06/30 06:50:41;;;;;;;10.63;8.35;;;;;;;41.65;21.11;94448.97;5072138;28;20903;-56
2021/06/30 06:53:22;;;;;;;9.77;8.20;;;;;;;42.24;20.53;94442.91;5071945;28;20394;-56
2021/06/30 06:56:09;;;;;;;8.18;6.93;;;;;;;41.81;21.39;94448.31;5071886;28;20387;-53
2021/06/30 06:58:51;;;;;;;8.80;7.50;;;;;;;42.46;20.44;94445.78;5133343;27;19926;-54
2021/06/30 07:01:31;;;;;;;10.15;7.80;;;;;;;42.40;20.41;94448.47;5072257;28;20394;-58
2021/06/30 07:04:13;;;;;;;8.85;7.35;;;;;;;42.29;20.69;94444.91;5071951;28;20379;-54
2021/06/30 07:06:58;;;;;;;9.07;7.43;;;;;;;42.45;20.67;94444.25;5091878;27;20397;-56
2021/06/30 07:09:40;;;;;;;11.43;7.40;;;;;;;42.56;20.20;94438.84;5072203;28;20388;-53
2021/06/30 07:12:21;;;;;;;9.52;6.97;;;;;;;42.28;20.13;94435.94;5112642;27;20413;-54
2021/06/30 07:15:06;;;;;;;9.00;7.20;;;;;;;42.51;20.14;94441.56;5072221;28;20665;-54
2021/06/30 07:17:49;;;;;;;8.18;6.72;;;;;;;42.63;19.82;94446.59;5091881;28;20129;-53
2021/06/30 07:20:30;;;;;;;8.43;7.05;;;;;;;42.73;19.76;94436.91;5070325;28;20387;-54
2021/06/30 07:23:14;;;;;;;8.50;7.28;;;;;;;43.15;19.71;94434.56;5089126;27;20392;-57
2021/06/30 07:25:56;;;;;;;7.85;6.90;;;;;;;42.71;20.65;94427.66;5072105;28;20397;-59
2021/06/30 07:28:37;;;;;;;9.65;7.47;;;;;;;43.16;20.13;94433.31;5092498;27;20392;-58
2021/06/30 07:31:20;;;;;;;8.70;7.53;;;;;;;42.99;20.25;94425.78;5122364;27;20129;-56
2021/06/30 07:34:01;;;;;;;11.20;7.63;;;;;;;43.02;19.89;94421.28;5071888;28;20382;-55
2021/06/30 07:36:43;;;;;;;10.35;8.02;;;;;;;42.92;20.13;94415.25;5071856;28;20389;-54
2021/06/30 07:39:25;;;;;;;10.68;7.63;;;;;;;42.95;20.56;94419.03;5072233;28;20728;-54
2021/06/30 07:42:06;;;;;;;10.52;7.55;;;;;;;43.64;19.47;94424.88;5133161;27;20128;-55
2021/06/30 07:44:49;;;;;;;7.35;6.60;;;;;;;43.97;18.63;94415.84;5114253;27;20132;-54
2021/06/30 07:47:31;;;;;;;9.32;8.00;;;;;;;44.01;18.67;94412.88;5071681;28;20416;-55
2021/06/30 07:50:12;;;;;;;8.60;7.80;;;;;;;44.04;18.96;94403.59;5070315;28;20382;-54
2021/06/30 07:52:53;;;;;;;9.00;8.10;;;;;;;44.31;18.74;94404.81;5071876;28;20417;-55
2021/06/30 07:55:35;;;;;;;9.73;8.25;;;;;;;43.93;19.19;94413.38;5072298;28;20387;-53
2021/06/30 07:58:20;;;;;;;9.77;8.38;;;;;;;44.19;18.73;94398.56;5071780;28;20378;-60
2021/06/30 08:01:01;;;;;;;10.35;9.32;;;;;;;44.13;18.58;94406.84;5072152;28;20389;-56
2021/06/30 08:03:42;;;;;;;9.13;8.32;;;;;;;43.75;19.49;94405.66;5071949;28;20386;-57
2021/06/30 08:06:24;;;;;;;10.88;9.32;;;;;;;44.02;19.21;94411.63;5072039;28;20390;-59
2021/06/30 08:09:05;;;;;;;12.95;10.85;;;;;;;44.38;18.16;94405.03;5092426;27;20711;-54
2021/06/30 08:11:46;;;;;;;14.93;10.00;;;;;;;44.50;18.48;94400.25;5073955;28;20404;-54
2021/06/30 08:14:28;;;;;;;13.80;12.10;;;;;;;44.41;18.30;94404.00;5118018;27;19916;-56
2021/06/30 08:17:09;;;;;;;14.00;11.10;;;;;;;44.79;18.50;94396.13;5071782;28;20386;-54
2021/06/30 08:19:51;;;;;;;13.00;9.50;;;;;;;44.53;18.68;94394.50;5071618;28;20386;-53
2021/06/30 08:22:33;;;;;;;11.00;9.45;;;;;;;44.46;18.75;94400.50;5072083;28;20382;-57
2021/06/30 08:25:16;;;;;;;12.23;10.30;;;;;;;44.80;18.54;94386.59;5072266;28;20396;-57
2021/06/30 08:28:00;;;;;;;10.43;9.32;;;;;;;44.29;18.82;94391.53;5071751;28;20382;-57
2021/06/30 08:30:40;;;;;;;13.27;10.40;;;;;;;44.74;18.49;94392.13;5072179;28;20744;-55
2021/06/30 08:33:22;;;;;;;13.77;12.38;;;;;;;44.91;17.79;94383.78;5092256;28;20385;-55
2021/06/30 08:36:04;;;;;;;13.38;12.07;;;;;;;44.96;18.32;94390.53;5072107;28;20397;-58
2021/06/30 08:38:45;;;;;;;17.20;15.43;;;;;;;44.86;17.90;94387.34;5094880;27;20142;-54
2021/06/30 08:41:26;;;;;;;12.45;9.95;;;;;;;44.70;18.36;94390.88;5072146;28;20897;-55
2021/06/30 08:44:08;;;;;;;10.38;8.85;;;;;;;44.61;18.87;94380.16;5071816;28;20723;-55
2021/06/30 08:46:49;;;;;;;9.68;8.80;;;;;;;44.93;18.37;94381.28;5071792;28;20386;-54
2021/06/30 08:49:33;;;;;;;11.20;8.30;;;;;;;44.62;18.51;94385.19;5071443;28;20393;-55
2021/06/30 08:52:13;;;;;;;9.13;8.23;;;;;;;44.40;18.39;94385.97;5070462;28;20401;-55
2021/06/30 08:54:57;;;;;;;10.75;8.52;;;;;;;44.97;18.47;94376.22;5071926;28;20379;-55
2021/06/30 08:57:39;;;;;;;12.38;8.63;;;;;;;45.07;18.19;94379.44;5125776;27;19916;-57
2021/06/30 09:00:20;;;;;;;8.93;8.02;;;;;;;44.76;19.03;94383.34;5133313;27;20580;-57
2021/06/30 09:03:01;;;;;;;10.05;7.90;;;;;;;44.88;18.10;94379.31;5091389;27;20388;-54
2021/06/30 09:08:37;;;;;;;12.57;8.02;;;;;;;44.63;18.20;94380.41;5092425;28;20711;-56
2021/06/30 09:11:24;;;;;;;9.27;7.63;;;;;;;44.61;19.13;94380.16;5072099;28;20386;-55
2021/06/30 09:14:25;;;;;;;8.80;7.63;;;;;;;44.90;18.62;94376.78;5091761;28;20374;-55
2021/06/30 09:20:08;;;;;;;8.38;7.55;;;;;;;45.01;18.26;94371.19;5070801;28;20383;-55
2021/06/30 09:22:51;;;;;;;11.50;7.90;;;;;;;45.48;18.09;94360.09;5112779;27;20128;-55
2021/06/30 09:25:35;;;;;;;9.38;7.32;;;;;;;45.43;18.41;94361.63;5071909;28;20378;-53
2021/06/30 09:28:16;;;;;;;10.15;8.10;;;;;;;45.68;18.18;94364.47;5072116;28;20395;-54
2021/06/30 09:31:06;;;;;;;11.75;8.65;;;;;;;45.58;18.14;94366.03;5060919;28;20721;-54
2021/06/30 09:33:55;;;;;;;9.93;9.00;;;;;;;45.72;17.81;94360.16;5132732;27;20127;-55
2021/06/30 09:36:50;;;;;;;10.80;8.98;;;;;;;45.45;17.62;94353.59;5072049;28;20382;-55
2021/06/30 09:39:38;;;;;;;11.10;8.85;;;;;;;45.37;18.14;94355.41;5072247;28;20401;-58
2021/06/30 09:42:33;;;;;;;11.10;8.60;;;;;;;45.50;17.68;94338.25;5112736;27;20376;-57
2021/06/30 09:45:19;;;;;;;12.32;8.73;;;;;;;45.34;17.77;94330.88;5069021;28;20390;-57
2021/06/30 09:48:00;;;;;;;11.48;8.02;;;;;;;45.43;17.65;94334.03;5089031;28;20401;-55
2021/06/30 09:50:41;;;;;;;12.45;8.25;;;;;;;45.68;17.55;94323.06;5133367;27;20402;-55
2021/06/30 09:53:39;;;;;;;9.38;8.13;;;;;;;45.54;17.85;94318.63;5133002;27;20151;-59
2021/06/30 09:56:38;;;;;;;9.38;8.13;;;;;;;45.49;17.41;94314.66;5133156;27;20306;-55
2021/06/30 09:59:25;;;;;;;9.75;8.13;;;;;;;45.27;17.60;94315.63;5071841;28;20394;-55
2021/06/30 10:02:11;;;;;;;10.82;8.30;;;;;;;45.41;17.75;94308.22;5072144;28;20393;-54
2021/06/30 10:04:59;;;;;;;9.15;7.95;;;;;;;45.72;17.57;94304.19;5071952;28;20386;-55
2021/06/30 10:07:40;;;;;;;8.88;7.95;;;;;;;45.63;17.80;94302.53;5071767;28;20374;-54
2021/06/30 10:10:21;;;;;;;8.95;8.05;;;;;;;45.32;17.66;94295.53;5072230;28;20388;-55
2021/06/30 10:13:02;;;;;;;9.40;7.50;;;;;;;45.76;17.34;94297.13;5072167;28;20383;-55
2021/06/30 10:15:44;;;;;;;12.38;8.25;;;;;;;45.44;17.37;94296.16;5071959;28;20409;-53
2021/06/30 10:18:26;;;;;;;11.93;8.40;;;;;;;45.37;17.52;94288.47;5126805;27;20127;-56
2021/06/30 10:21:07;;;;;;;10.00;7.90;;;;;;;44.95;17.94;94290.53;5072192;28;20385;-55
2021/06/30 10:23:49;;;;;;;9.38;7.85;;;;;;;45.53;17.38;94284.03;5127687;27;19920;-54
2021/06/30 10:26:31;;;;;;;11.48;8.88;;;;;;;45.60;16.98;94286.22;5092264;27;20382;-57
2021/06/30 10:29:14;;;;;;;8.77;7.90;;;;;;;45.26;17.50;94281.00;5116535;27;19927;-62
2021/06/30 10:32:03;;;;;;;10.90;8.32;;;;;;;45.64;16.89;94281.19;5072092;28;20871;-55
2021/06/30 10:34:46;;;;;;;12.50;8.68;;;;;;;45.30;17.82;94286.28;5120061;27;20174;-54
2021/06/30 10:37:35;;;;;;;11.98;8.50;;;;;;;45.66;16.77;94279.41;5092049;28;20389;-58
2021/06/30 10:40:18;;;;;;;9.30;7.68;;;;;;;45.56;17.34;94286.53;5061128;28;20398;-55
2021/06/30 10:43:09;;;;;;;9.25;8.15;;;;;;;45.40;17.13;94268.09;5112832;27;20124;-57
2021/06/30 10:46:23;;;;;;;9.65;7.82;;;;;;;45.31;17.03;94260.94;5071658;28;20386;-54
2021/06/30 10:49:16;;;;;;;12.80;8.43;;;;;;;45.26;17.28;94263.72;5070789;28;20383;-57
2021/06/30 10:52:03;;;;;;;13.32;8.20;;;;;;;45.68;16.93;94265.84;5072115;28;20397;-56
2021/06/30 10:54:47;;;;;;;7.72;7.03;;;;;;;45.47;17.04;94256.50;5071903;28;20935;-57
2021/06/30 10:57:31;;;;;;;12.23;8.20;;;;;;;45.43;17.18;94261.56;5091899;27;20391;-54
2021/06/30 11:00:14;;;;;;;9.50;7.88;;;;;;;45.68;17.33;94254.06;5072140;28;20398;-56
2021/06/30 11:03:24;;;;;;;13.30;8.15;;;;;;;45.31;16.23;94260.19;5107797;27;19920;-56
2021/06/30 11:06:14;;;;;;;12.65;8.15;;;;;;;44.95;17.28;94251.16;5071952;28;20130;-55
2021/06/30 11:09:05;;;;;;;11.75;7.80;;;;;;;45.58;17.22;94256.41;5071870;28;20387;-55
2021/06/30 11:11:47;;;;;;;12.35;8.13;;;;;;;45.34;16.75;94246.09;5112792;27;20384;-57
2021/06/30 11:14:39;;;;;;;9.95;7.28;;;;;;;45.58;16.74;94244.59;5123781;27;20117;-57
2021/06/30 11:17:36;;;;;;;9.85;7.10;;;;;;;45.85;16.50;94240.81;5071344;28;20394;-55
2021/06/30 11:20:54;;;;;;;14.05;6.95;;;;;;;45.74;16.63;94240.94;5071793;28;20502;-55
2021/06/30 11:23:41;;;;;;;11.05;7.63;;;;;;;45.75;17.12;94226.59;5133000;27;20338;-59
2021/06/30 11:26:37;;;;;;;11.68;7.93;;;;;;;45.38;17.14;94226.50;5133154;27;19915;-56
2021/06/30 11:29:45;;;;;;;9.55;7.88;;;;;;;45.74;16.52;94214.06;5071921;28;20142;-55
2021/06/30 11:32:36;;;;;;;12.55;7.88;;;;;;;45.39;17.07;94228.00;5092350;27;20878;-58
2021/06/30 11:35:20;;;;;;;10.13;7.60;;;;;;;45.06;17.05;94218.75;5071982;28;20379;-58
2021/06/30 11:38:13;;;;;;;12.23;7.90;;;;;;;45.91;16.79;94204.84;5071703;28;20393;-54
2021/06/30 11:41:15;;;;;;;13.90;7.35;;;;;;;45.52;16.72;94203.25;5133405;27;20127;-56
2021/06/30 11:43:57;;;;;;;11.20;7.00;;;;;;;45.52;16.23;94197.72;5129012;27;19922;-57
2021/06/30 11:46:42;;;;;;;10.90;7.22;;;;;;;45.58;16.57;94201.19;5165386;27;20377;-54
2021/06/30 11:49:23;;;;;;;9.30;7.53;;;;;;;45.95;16.63;94202.53;5071675;28;20393;-60
2021/06/30 11:52:05;;;;;;;10.10;6.93;;;;;;;45.65;16.43;94186.84;5072079;28;20394;-54
2021/06/30 11:54:45;;;;;;;10.07;7.07;;;;;;;45.58;16.24;94190.16;5076074;27;1345400;-55
2021/06/30 11:57:26;;;;;;;12.20;7.15;;;;;;;45.67;16.15;94186.31;5071747;28;20406;-55
2021/06/30 12:00:11;;;;;;;9.10;5.93;;;;;;;45.36;16.11;94179.38;5072136;28;20401;-59
2021/06/30 12:03:03;;;;;;;9.27;5.65;;;;;;;45.48;15.46;94183.47;5052160;28;20408;-56
2021/06/30 12:05:45;;;;;;;9.85;5.72;;;;;;;45.97;15.04;94169.63;5111619;27;20155;-56
2021/06/30 12:08:27;;;;;;;8.52;6.70;;;;;;;45.62;15.57;94174.06;5071977;28;21138;-55
2021/06/30 12:11:09;;;;;;;9.90;6.70;;;;;;;45.79;16.22;94166.31;5072155;28;20387;-55
2021/06/30 12:14:11;;;;;;;7.88;7.05;;;;;;;45.90;16.27;94170.97;5112795;27;20124;-57
2021/06/30 12:16:56;;;;;;;8.95;6.85;;;;;;;45.86;16.07;94158.72;5071681;27;20382;-56
2021/06/30 12:19:40;;;;;;;11.98;7.50;;;;;;;45.88;15.70;94156.19;5070345;28;20879;-55
2021/06/30 12:22:32;;;;;;;9.88;6.97;;;;;;;45.72;16.15;94164.16;5092375;28;20742;-54
2021/06/30 12:25:15;;;;;;;10.65;6.95;;;;;;;45.44;16.55;94158.19;5072200;28;20725;-54
2021/06/30 12:28:02;;;;;;;8.40;6.57;;;;;;;45.56;16.39;94154.06;5111902;27;20701;-55
2021/06/30 12:30:46;;;;;;;9.70;6.47;;;;;;;45.75;16.24;94151.31;5072321;28;20379;-59
2021/06/30 12:33:28;;;;;;;11.43;7.22;;;;;;;45.73;16.16;94151.84;5072221;28;20397;-56
2021/06/30 12:36:10;;;;;;;8.60;6.13;;;;;;;45.69;16.38;94143.13;5071740;28;20390;-55
2021/06/30 12:38:51;;;;;;;8.32;6.40;;;;;;;45.66;15.65;94149.69;5071937;28;20389;-58
2021/06/30 12:41:32;;;;;;;9.13;6.63;;;;;;;45.17;16.57;94138.66;5072236;28;20397;-54
2021/06/30 12:44:14;;;;;;;8.90;5.57;;;;;;;45.61;15.11;94139.44;5133273;27;20119;-61
2021/06/30 12:47:12;;;;;;;8.00;5.55;;;;;;;45.37;14.33;94133.97;5071589;28;20378;-62
2021/06/30 12:50:07;;;;;;;7.13;5.20;;;;;;;45.74;14.46;94139.53;5131555;27;20379;-56